createdAt,value
2022-11-05T00:00:05.952Z,993.08
2022-11-05T00:01:05.939Z,993.05
2022-11-05T00:02:06.001Z,993.08
2022-11-05T00:03:05.917Z,993.10
2022-11-05T00:04:05.962Z,993.14
2022-11-05T00:05:05.896Z,993.12
2022-11-05T00:06:05.887Z,993.13
2022-11-05T00:07:05.887Z,993.19
2022-11-05T00:08:05.868Z,993.14
2022-11-05T00:09:05.853Z,993.14
2022-11-05T00:10:05.845Z,993.17
2022-11-05T00:11:05.844Z,993.15
2022-11-05T00:12:05.838Z,993.14
2022-11-05T00:13:05.809Z,993.18
2022-11-05T00:14:05.810Z,993.17
2022-11-05T00:15:05.798Z,993.23
2022-11-05T00:16:05.785Z,993.22
2022-11-05T00:17:05.789Z,993.25
2022-11-05T00:18:05.759Z,993.24
2022-11-05T00:19:05.740Z,993.22
2022-11-05T00:20:05.739Z,993.20
2022-11-05T00:21:05.728Z,993.24
2022-11-05T00:22:05.732Z,993.18
2022-11-05T00:23:05.702Z,993.22
2022-11-05T00:24:05.704Z,993.21
2022-11-05T00:25:05.681Z,993.21
2022-11-05T00:26:05.680Z,993.27
2022-11-05T00:27:05.671Z,993.29
2022-11-05T00:28:05.651Z,993.31
2022-11-05T00:29:05.642Z,993.26
2022-11-05T00:30:05.632Z,993.33
2022-11-05T00:31:05.613Z,993.34
2022-11-05T00:32:05.632Z,993.31
2022-11-05T00:33:05.595Z,993.29
2022-11-05T00:34:05.645Z,993.34
2022-11-05T00:35:05.584Z,993.35
2022-11-05T00:36:05.572Z,993.35
2022-11-05T00:37:05.572Z,993.37
2022-11-05T00:38:05.547Z,993.35
2022-11-05T00:39:05.535Z,993.32
2022-11-05T00:40:05.534Z,993.41
2022-11-05T00:41:05.521Z,993.41
2022-11-05T00:42:05.525Z,993.40
2022-11-05T00:43:05.494Z,993.41
2022-11-05T00:44:05.485Z,993.37
2022-11-05T00:45:05.468Z,993.46
2022-11-05T00:46:05.476Z,993.46
2022-11-05T00:47:05.467Z,993.43
2022-11-05T00:48:05.448Z,993.46
2022-11-05T00:49:05.430Z,993.48
2022-11-05T00:50:05.419Z,993.52
2022-11-05T00:51:05.410Z,993.44
2022-11-05T00:52:05.418Z,993.46
2022-11-05T00:53:05.391Z,993.49
2022-11-05T00:54:05.383Z,993.50
2022-11-05T00:55:05.370Z,993.45
2022-11-05T00:56:05.362Z,993.51
2022-11-05T00:57:05.389Z,993.52
2022-11-05T00:58:05.340Z,993.51
2022-11-05T00:59:05.331Z,993.50
2022-11-05T01:00:05.321Z,993.54
2022-11-05T01:01:05.302Z,993.56
2022-11-05T01:02:05.470Z,993.56
2022-11-05T01:03:05.283Z,993.55
2022-11-05T01:04:05.264Z,993.60
2022-11-05T01:05:05.263Z,993.62
2022-11-05T01:06:05.264Z,993.62
2022-11-05T01:07:05.261Z,993.62
2022-11-05T01:08:05.231Z,993.61
2022-11-05T01:09:05.223Z,993.61
2022-11-05T01:10:05.206Z,993.69
2022-11-05T01:11:05.203Z,993.72
2022-11-05T01:12:05.203Z,993.69
2022-11-05T01:13:08.831Z,993.73
2022-11-05T01:14:06.164Z,993.73
2022-11-05T01:15:05.159Z,993.76
2022-11-05T01:16:05.148Z,993.71
2022-11-05T01:17:05.158Z,993.75
2022-11-05T01:18:05.130Z,993.77
2022-11-05T01:19:05.119Z,993.78
2022-11-05T01:20:05.139Z,993.83
2022-11-05T01:21:05.096Z,993.79
2022-11-05T01:22:05.089Z,993.82
2022-11-05T01:23:10.262Z,993.78
2022-11-05T01:24:06.080Z,993.81
2022-11-05T01:25:05.056Z,993.84
2022-11-05T01:26:05.031Z,993.82
2022-11-05T01:27:05.049Z,993.84
2022-11-05T01:28:05.021Z,993.91
2022-11-05T01:29:05.042Z,993.86
2022-11-05T01:30:05.002Z,993.86
2022-11-05T01:31:04.991Z,993.85
2022-11-05T01:32:04.993Z,993.89
2022-11-05T01:33:04.963Z,993.80
2022-11-05T01:34:04.953Z,993.89
2022-11-05T01:35:04.943Z,993.85
2022-11-05T01:36:04.933Z,993.83
2022-11-05T01:37:04.941Z,993.83
2022-11-05T01:38:04.904Z,993.85
2022-11-05T01:39:04.903Z,993.85
2022-11-05T01:40:04.892Z,993.89
2022-11-05T01:41:04.884Z,993.87
2022-11-05T01:42:04.886Z,993.87
2022-11-05T01:43:04.866Z,993.90
2022-11-05T01:44:04.845Z,993.92
2022-11-05T01:45:04.843Z,993.93
2022-11-05T01:46:04.826Z,993.93
2022-11-05T01:47:04.845Z,993.93
2022-11-05T01:48:04.804Z,993.98
2022-11-05T01:49:04.796Z,994.02
2022-11-05T01:50:04.780Z,993.96
2022-11-05T01:51:04.777Z,994.01
2022-11-05T01:52:04.796Z,993.91
2022-11-05T01:53:04.760Z,994.01
2022-11-05T01:54:04.738Z,994.03
2022-11-05T01:55:04.730Z,994.00
2022-11-05T01:56:04.734Z,994.03
2022-11-05T01:57:04.729Z,993.98
2022-11-05T01:58:04.698Z,994.01
2022-11-05T01:59:04.688Z,994.00
2022-11-05T02:00:04.678Z,994.00
2022-11-05T02:01:04.678Z,994.00
2022-11-05T02:02:04.822Z,994.06
2022-11-05T02:03:04.785Z,994.09
2022-11-05T02:04:04.632Z,994.11
2022-11-05T02:05:04.624Z,994.10
2022-11-05T02:06:04.612Z,994.10
2022-11-05T02:07:04.625Z,994.14
2022-11-05T02:08:04.595Z,994.16
2022-11-05T02:09:04.594Z,994.17
2022-11-05T02:10:04.573Z,994.18
2022-11-05T02:11:04.565Z,994.17
2022-11-05T02:12:04.565Z,994.20
2022-11-05T02:13:04.544Z,994.18
2022-11-05T02:14:04.528Z,994.21
2022-11-05T02:15:04.526Z,994.19
2022-11-05T02:16:04.506Z,994.23
2022-11-05T02:17:04.519Z,994.20
2022-11-05T02:18:04.487Z,994.18
2022-11-05T02:19:04.478Z,994.18
2022-11-05T02:20:04.459Z,994.20
2022-11-05T02:21:04.457Z,994.19
2022-11-05T02:22:04.459Z,994.18
2022-11-05T02:23:04.439Z,994.23
2022-11-05T02:24:04.418Z,994.20
2022-11-05T02:25:04.416Z,994.21
2022-11-05T02:26:04.400Z,994.17
2022-11-05T02:27:04.410Z,994.24
2022-11-05T02:28:04.380Z,994.22
2022-11-05T02:29:04.371Z,994.21
2022-11-05T02:30:04.358Z,994.22
2022-11-05T02:31:04.350Z,994.26
2022-11-05T02:32:04.360Z,994.29
2022-11-05T02:33:04.333Z,994.27
2022-11-05T02:34:04.322Z,994.28
2022-11-05T02:35:04.311Z,994.25
2022-11-05T02:36:04.294Z,994.38
2022-11-05T02:37:04.303Z,994.40
2022-11-05T02:38:04.285Z,994.37
2022-11-05T02:39:04.266Z,994.43
2022-11-05T02:40:04.254Z,994.34
2022-11-05T02:41:04.245Z,994.41
2022-11-05T02:42:05.302Z,994.42
2022-11-05T02:43:04.225Z,994.38
2022-11-05T02:44:04.207Z,994.43
2022-11-05T02:45:04.206Z,994.45
2022-11-05T02:46:04.186Z,994.47
2022-11-05T02:47:04.213Z,994.46
2022-11-05T02:48:04.167Z,994.43
2022-11-05T02:49:04.165Z,994.41
2022-11-05T02:50:04.146Z,994.40
2022-11-05T02:51:04.138Z,994.45
2022-11-05T02:52:04.137Z,994.41
2022-11-05T02:53:04.119Z,994.37
2022-11-05T02:54:04.105Z,994.41
2022-11-05T02:55:04.109Z,994.43
2022-11-05T02:56:04.088Z,994.46
2022-11-05T02:57:04.090Z,994.45
2022-11-05T02:58:04.060Z,994.43
2022-11-05T02:59:04.053Z,994.44
2022-11-05T03:00:04.048Z,994.44
2022-11-05T03:01:04.032Z,994.42
2022-11-05T03:02:04.196Z,994.49
2022-11-05T03:03:04.083Z,994.42
2022-11-05T03:04:04.002Z,994.41
2022-11-05T03:05:04.000Z,994.43
2022-11-05T03:06:03.978Z,994.48
2022-11-05T03:07:03.989Z,994.46
2022-11-05T03:08:03.960Z,994.49
2022-11-05T03:09:03.953Z,994.41
2022-11-05T03:10:03.933Z,994.45
2022-11-05T03:11:03.924Z,994.46
2022-11-05T03:12:03.932Z,994.48
2022-11-05T03:13:03.914Z,994.46
2022-11-05T03:14:03.894Z,994.46
2022-11-05T03:15:03.883Z,994.46
2022-11-05T03:16:03.873Z,994.48
2022-11-05T03:17:03.886Z,994.52
2022-11-05T03:18:03.849Z,994.48
2022-11-05T03:19:03.847Z,994.44
2022-11-05T03:20:03.828Z,994.49
2022-11-05T03:21:03.827Z,994.48
2022-11-05T03:22:03.836Z,994.44
2022-11-05T03:23:03.806Z,994.40
2022-11-05T03:24:03.787Z,994.45
2022-11-05T03:25:03.778Z,994.36
2022-11-05T03:26:03.770Z,994.40
2022-11-05T03:27:03.758Z,994.44
2022-11-05T03:28:03.760Z,994.45
2022-11-05T03:29:03.742Z,994.45
2022-11-05T03:30:03.723Z,994.46
2022-11-05T03:31:03.720Z,994.46
2022-11-05T03:32:03.700Z,994.49
2022-11-05T03:33:03.711Z,994.51
2022-11-05T03:34:03.680Z,994.53
2022-11-05T03:35:03.685Z,994.51
2022-11-05T03:36:03.660Z,994.56
2022-11-05T03:37:03.667Z,994.53
2022-11-05T03:38:03.660Z,994.57
2022-11-05T03:39:03.632Z,994.56
2022-11-05T03:40:03.614Z,994.56
2022-11-05T03:41:03.613Z,994.59
2022-11-05T03:42:03.615Z,994.65
2022-11-05T03:43:03.617Z,994.63
2022-11-05T03:44:03.574Z,994.68
2022-11-05T03:45:03.573Z,994.62
2022-11-05T03:46:03.556Z,994.63
2022-11-05T03:47:03.544Z,994.64
2022-11-05T03:48:03.545Z,994.73
2022-11-05T03:49:03.590Z,994.76
2022-11-05T03:50:03.520Z,994.71
2022-11-05T03:51:03.526Z,994.70
2022-11-05T03:52:03.495Z,994.73
2022-11-05T03:53:03.497Z,994.71
2022-11-05T03:54:03.470Z,994.73
2022-11-05T03:55:03.459Z,994.73
2022-11-05T03:56:03.467Z,994.70
2022-11-05T03:57:03.457Z,994.79
2022-11-05T03:58:03.438Z,994.77
2022-11-05T03:59:03.420Z,994.75
2022-11-05T04:00:03.429Z,994.76
2022-11-05T04:01:03.399Z,994.85
2022-11-05T04:02:03.508Z,994.83
2022-11-05T04:03:03.436Z,994.80
2022-11-05T04:04:03.371Z,994.84
2022-11-05T04:05:03.360Z,994.84
2022-11-05T04:06:03.346Z,994.84
2022-11-05T04:07:03.334Z,994.83
2022-11-05T04:08:03.341Z,994.89
2022-11-05T04:09:03.320Z,994.92
2022-11-05T04:10:03.302Z,994.95
2022-11-05T04:11:03.292Z,994.91
2022-11-05T04:12:03.273Z,994.99
2022-11-05T04:13:03.295Z,995.04
2022-11-05T04:14:03.253Z,995.03
2022-11-05T04:15:03.252Z,995.01
2022-11-05T04:16:03.234Z,995.05
2022-11-05T04:17:03.232Z,995.05
2022-11-05T04:18:03.225Z,995.05
2022-11-05T04:19:03.215Z,995.05
2022-11-05T04:20:03.198Z,994.98
2022-11-05T04:21:03.185Z,995.03
2022-11-05T04:22:03.172Z,995.10
2022-11-05T04:23:03.193Z,995.08
2022-11-05T04:24:03.156Z,995.06
2022-11-05T04:25:03.155Z,995.13
2022-11-05T04:26:03.127Z,995.14
2022-11-05T04:27:03.126Z,995.12
2022-11-05T04:28:03.132Z,995.07
2022-11-05T04:29:07.759Z,995.18
2022-11-05T04:30:04.098Z,995.14
2022-11-05T04:31:03.096Z,995.14
2022-11-05T04:32:03.077Z,995.16
2022-11-05T04:33:03.080Z,995.23
2022-11-05T04:34:03.039Z,995.19
2022-11-05T04:35:03.054Z,995.19
2022-11-05T04:36:03.029Z,995.23
2022-11-05T04:37:03.021Z,995.22
2022-11-05T04:38:03.022Z,995.18
2022-11-05T04:39:03.003Z,995.25
2022-11-05T04:40:02.992Z,995.29
2022-11-05T04:41:02.982Z,995.30
2022-11-05T04:42:02.978Z,995.28
2022-11-05T04:43:02.980Z,995.29
2022-11-05T04:44:02.941Z,995.29
2022-11-05T04:45:02.972Z,995.32
2022-11-05T04:46:02.924Z,995.33
2022-11-05T04:47:02.912Z,995.30
2022-11-05T04:48:02.922Z,995.36
2022-11-05T04:49:02.893Z,995.27
2022-11-05T04:50:02.886Z,995.35
2022-11-05T04:51:02.873Z,995.32
2022-11-05T04:52:02.855Z,995.34
2022-11-05T04:53:02.864Z,995.32
2022-11-05T04:54:02.837Z,995.29
2022-11-05T04:55:02.845Z,995.35
2022-11-05T04:56:02.817Z,995.33
2022-11-05T04:57:02.807Z,995.35
2022-11-05T04:58:02.814Z,995.29
2022-11-05T04:59:02.792Z,995.35
2022-11-05T05:00:02.786Z,995.35
2022-11-05T05:01:02.842Z,995.31
2022-11-05T05:02:02.851Z,995.32
2022-11-05T05:03:02.766Z,995.30
2022-11-05T05:04:02.729Z,995.34
2022-11-05T05:05:02.721Z,995.34
2022-11-05T05:06:04.159Z,995.39
2022-11-05T05:07:02.698Z,995.38
2022-11-05T05:08:02.710Z,995.38
2022-11-05T05:09:02.680Z,995.39
2022-11-05T05:10:02.668Z,995.43
2022-11-05T05:11:02.659Z,995.49
2022-11-05T05:12:02.650Z,995.47
2022-11-05T05:13:02.650Z,995.55
2022-11-05T05:14:02.627Z,995.54
2022-11-05T05:15:02.611Z,995.54
2022-11-05T05:16:02.613Z,995.54
2022-11-05T05:17:02.595Z,995.53
2022-11-05T05:18:02.605Z,995.48
2022-11-05T05:19:02.573Z,995.51
2022-11-05T05:20:02.575Z,995.52
2022-11-05T05:21:02.552Z,995.58
2022-11-05T05:22:02.543Z,995.60
2022-11-05T05:23:02.553Z,995.53
2022-11-05T05:24:02.526Z,995.58
2022-11-05T05:25:02.514Z,995.53
2022-11-05T05:26:02.505Z,995.55
2022-11-05T05:27:02.506Z,995.51
2022-11-05T05:28:02.487Z,995.60
2022-11-05T05:29:02.466Z,995.59
2022-11-05T05:30:02.469Z,995.56
2022-11-05T05:31:02.445Z,995.64
2022-11-05T05:32:02.465Z,995.64
2022-11-05T05:33:02.427Z,995.58
2022-11-05T05:34:02.429Z,995.60
2022-11-05T05:35:02.398Z,995.59
2022-11-05T05:36:07.016Z,995.56
2022-11-05T05:37:03.398Z,995.52
2022-11-05T05:38:02.376Z,995.56
2022-11-05T05:39:02.360Z,995.51
2022-11-05T05:40:02.357Z,995.62
2022-11-05T05:41:02.348Z,995.57
2022-11-05T05:42:02.448Z,995.60
2022-11-05T05:43:02.310Z,995.61
2022-11-05T05:44:02.312Z,995.53
2022-11-05T05:45:02.299Z,995.56
2022-11-05T05:46:02.293Z,995.55
2022-11-05T05:47:02.292Z,995.54
2022-11-05T05:48:02.274Z,995.56
2022-11-05T05:49:03.043Z,995.66
2022-11-05T05:50:02.273Z,995.63
2022-11-05T05:51:02.234Z,995.65
2022-11-05T05:52:02.246Z,995.69
2022-11-05T05:53:02.213Z,995.69
2022-11-05T05:54:02.212Z,995.71
2022-11-05T05:55:02.207Z,995.73
2022-11-05T05:56:02.185Z,995.77
2022-11-05T05:57:02.196Z,995.80
2022-11-05T05:58:02.165Z,995.76
2022-11-05T05:59:02.108Z,995.84
2022-11-05T06:00:02.095Z,995.82
2022-11-05T06:01:02.135Z,995.86
2022-11-05T06:02:02.275Z,995.85
2022-11-05T06:03:02.133Z,995.87
2022-11-05T06:04:02.045Z,995.85
2022-11-05T06:05:02.056Z,995.84
2022-11-05T06:06:02.086Z,995.91
2022-11-05T06:07:02.042Z,995.93
2022-11-05T06:08:02.017Z,995.99
2022-11-05T06:09:01.995Z,996.02
2022-11-05T06:10:01.987Z,996.03
2022-11-05T06:11:02.041Z,996.06
2022-11-05T06:12:01.980Z,996.07
2022-11-05T06:13:01.949Z,996.08
2022-11-05T06:14:01.946Z,996.06
2022-11-05T06:15:01.927Z,996.09
2022-11-05T06:16:01.919Z,996.09
2022-11-05T06:17:01.923Z,996.08
2022-11-05T06:18:01.908Z,996.15
2022-11-05T06:19:01.892Z,996.12
2022-11-05T06:20:01.900Z,996.09
2022-11-05T06:21:01.866Z,996.05
2022-11-05T06:22:01.879Z,996.09
2022-11-05T06:23:01.842Z,996.10
2022-11-05T06:24:01.847Z,996.06
2022-11-05T06:25:01.833Z,996.13
2022-11-05T06:26:01.815Z,996.14
2022-11-05T06:27:01.827Z,996.12
2022-11-05T06:28:01.814Z,996.15
2022-11-05T06:29:01.789Z,996.15
2022-11-05T06:30:01.772Z,996.15
2022-11-05T06:31:01.754Z,996.19
2022-11-05T06:32:01.772Z,996.24
2022-11-05T06:33:01.734Z,996.24
2022-11-05T06:34:01.735Z,996.20
2022-11-05T06:35:01.729Z,996.24
2022-11-05T06:36:01.725Z,996.23
2022-11-05T06:37:01.744Z,996.26
2022-11-05T06:38:01.692Z,996.26
2022-11-05T06:39:01.679Z,996.26
2022-11-05T06:40:01.717Z,996.28
2022-11-05T06:41:05.737Z,996.28
2022-11-05T06:42:19.350Z,996.38
2022-11-05T06:43:02.635Z,996.36
2022-11-05T06:44:01.626Z,996.32
2022-11-05T06:45:01.616Z,996.35
2022-11-05T06:46:01.607Z,996.34
2022-11-05T06:47:01.605Z,996.41
2022-11-05T06:48:01.668Z,996.43
2022-11-05T06:49:01.567Z,996.45
2022-11-05T06:50:01.572Z,996.46
2022-11-05T06:51:01.562Z,996.50
2022-11-05T06:52:01.557Z,996.49
2022-11-05T06:53:01.529Z,996.49
2022-11-05T06:54:01.520Z,996.48
2022-11-05T06:55:01.506Z,996.47
2022-11-05T06:56:01.509Z,996.56
2022-11-05T06:57:01.500Z,996.50
2022-11-05T06:58:01.479Z,996.55
2022-11-05T06:59:01.461Z,996.53
2022-11-05T07:00:05.756Z,996.55
2022-11-05T07:01:02.479Z,996.59
2022-11-05T07:02:01.515Z,996.60
2022-11-05T07:03:01.461Z,996.59
2022-11-05T07:04:01.413Z,996.58
2022-11-05T07:05:01.408Z,996.62
2022-11-05T07:06:01.394Z,996.64
2022-11-05T07:07:01.384Z,996.63
2022-11-05T07:08:01.394Z,996.65
2022-11-05T07:09:01.364Z,996.61
2022-11-05T07:10:01.353Z,996.66
2022-11-05T07:11:01.374Z,996.64
2022-11-05T07:12:01.334Z,996.69
2022-11-05T07:13:05.174Z,996.67
2022-11-05T07:14:02.317Z,996.70
2022-11-05T07:15:01.296Z,996.69
2022-11-05T07:16:01.293Z,996.71
2022-11-05T07:17:01.272Z,996.73
2022-11-05T07:18:01.286Z,996.71
2022-11-05T07:19:01.251Z,996.83
2022-11-05T07:20:01.271Z,996.80
2022-11-05T07:21:01.245Z,996.79
2022-11-05T07:22:01.236Z,996.79
2022-11-05T07:23:01.230Z,996.82
2022-11-05T07:24:01.212Z,996.84
2022-11-05T07:25:01.201Z,996.88
2022-11-05T07:26:01.190Z,996.94
2022-11-05T07:27:01.168Z,996.91
2022-11-05T07:28:01.180Z,996.91
2022-11-05T07:29:01.160Z,996.95
2022-11-05T07:30:01.140Z,996.95
2022-11-05T07:31:01.238Z,996.97
2022-11-05T07:32:01.121Z,996.98
2022-11-05T07:33:01.168Z,997.06
2022-11-05T07:34:01.105Z,997.10
2022-11-05T07:35:01.089Z,997.12
2022-11-05T07:36:01.082Z,997.05
2022-11-05T07:37:01.093Z,997.15
2022-11-05T07:38:01.064Z,997.13
2022-11-05T07:39:01.043Z,997.16
2022-11-05T07:40:01.047Z,997.10
2022-11-05T07:41:01.023Z,997.14
2022-11-05T07:42:01.032Z,997.16
2022-11-05T07:43:01.003Z,997.16
2022-11-05T07:44:00.994Z,997.14
2022-11-05T07:45:00.989Z,997.15
2022-11-05T07:46:00.980Z,997.24
2022-11-05T07:47:00.955Z,997.18
2022-11-05T07:48:00.968Z,997.20
2022-11-05T07:49:00.958Z,997.23
2022-11-05T07:50:00.938Z,997.21
2022-11-05T07:51:00.921Z,997.24
2022-11-05T07:52:00.921Z,997.27
2022-11-05T07:53:00.914Z,997.34
2022-11-05T07:54:00.889Z,997.37
2022-11-05T07:55:00.880Z,997.28
2022-11-05T07:56:00.876Z,997.38
2022-11-05T07:57:00.849Z,997.34
2022-11-05T07:58:00.867Z,997.34
2022-11-05T07:59:00.838Z,997.40
2022-11-05T08:00:00.829Z,997.44
2022-11-05T08:01:00.940Z,997.45
2022-11-05T08:02:00.964Z,997.50
2022-11-05T08:03:06.803Z,997.47
2022-11-05T08:04:01.798Z,997.44
2022-11-05T08:05:00.770Z,997.49
2022-11-05T08:06:00.761Z,997.44
2022-11-05T08:07:00.749Z,997.42
2022-11-05T08:08:00.764Z,997.41
2022-11-05T08:09:00.731Z,997.48
2022-11-05T08:10:00.720Z,997.51
2022-11-05T08:11:00.712Z,997.54
2022-11-05T08:12:03.139Z,997.54
2022-11-05T08:13:00.711Z,997.54
2022-11-05T08:14:00.680Z,997.54
2022-11-05T08:15:00.664Z,997.59
2022-11-05T08:16:00.654Z,997.58
2022-11-05T08:17:00.643Z,997.53
2022-11-05T08:18:00.654Z,997.54
2022-11-05T08:19:00.625Z,997.57
2022-11-05T08:20:00.615Z,997.56
2022-11-05T08:21:00.597Z,997.59
2022-11-05T08:22:00.600Z,997.58
2022-11-05T08:23:00.595Z,997.58
2022-11-05T08:24:00.575Z,997.60
2022-11-05T08:25:06.452Z,997.57
2022-11-05T08:26:01.555Z,997.67
2022-11-05T08:27:00.556Z,997.60
2022-11-05T08:28:00.546Z,997.60
2022-11-05T08:29:00.517Z,997.63
2022-11-05T08:30:00.509Z,997.65
2022-11-05T08:31:00.488Z,997.62
2022-11-05T08:32:00.489Z,997.66
2022-11-05T08:33:00.489Z,997.62
2022-11-05T08:34:02.576Z,997.61
2022-11-05T08:35:00.489Z,997.58
2022-11-05T08:36:00.448Z,997.60
2022-11-05T08:37:00.431Z,997.62
2022-11-05T08:38:00.441Z,997.60
2022-11-05T08:39:00.407Z,997.61
2022-11-05T08:40:00.400Z,997.67
2022-11-05T08:41:00.396Z,997.64
2022-11-05T08:42:00.385Z,997.63
2022-11-05T08:43:00.386Z,997.65
2022-11-05T08:44:00.372Z,997.71
2022-11-05T08:45:00.341Z,997.72
2022-11-05T08:46:00.334Z,997.69
2022-11-05T08:47:00.324Z,997.72
2022-11-05T08:48:00.333Z,997.70
2022-11-05T08:49:00.312Z,997.71
2022-11-05T08:50:00.296Z,997.73
2022-11-05T08:51:00.283Z,997.77
2022-11-05T08:52:00.283Z,997.78
2022-11-05T08:53:00.284Z,997.80
2022-11-05T08:54:00.256Z,997.82
2022-11-05T08:55:00.238Z,997.87
2022-11-05T08:56:00.234Z,997.81
2022-11-05T08:57:00.215Z,997.84
2022-11-05T08:58:00.233Z,997.84
2022-11-05T08:59:00.196Z,997.89
2022-11-05T09:00:00.211Z,997.86
2022-11-05T09:01:04.780Z,997.88
2022-11-05T09:02:01.290Z,997.87
2022-11-05T09:03:00.171Z,997.85
2022-11-05T09:04:00.147Z,997.81
2022-11-05T09:05:00.138Z,997.83
2022-11-05T09:06:00.149Z,997.85
2022-11-05T09:07:00.108Z,997.85
2022-11-05T09:08:01.568Z,997.85
2022-11-05T09:09:00.095Z,997.83
2022-11-05T09:10:00.103Z,997.84
2022-11-05T09:11:00.100Z,997.83
2022-11-05T09:12:12.123Z,997.81
2022-11-05T09:13:01.070Z,997.88
2022-11-05T09:14:00.049Z,997.89
2022-11-05T09:15:00.043Z,997.87
2022-11-05T09:16:00.011Z,997.90
2022-11-05T09:17:00.010Z,997.87
2022-11-05T09:18:00.039Z,997.89
2022-11-05T09:19:00.001Z,997.97
2022-11-05T09:19:59.984Z,997.90
2022-11-05T09:20:59.983Z,997.88
2022-11-05T09:22:00.006Z,997.91
2022-11-05T09:22:59.962Z,997.97
2022-11-05T09:23:59.934Z,997.95
2022-11-05T09:24:59.934Z,997.91
2022-11-05T09:25:59.915Z,997.86
2022-11-05T09:26:59.914Z,997.85
2022-11-05T09:27:59.905Z,997.84
2022-11-05T09:28:59.892Z,997.85
2022-11-05T09:29:59.885Z,997.80
2022-11-05T09:30:59.862Z,997.83
2022-11-05T09:31:59.854Z,997.85
2022-11-05T09:32:59.856Z,997.88
2022-11-05T09:33:59.827Z,997.85
2022-11-05T09:34:59.818Z,997.82
2022-11-05T09:35:59.809Z,997.86
2022-11-05T09:36:59.797Z,997.90
2022-11-05T09:38:01.089Z,997.88
2022-11-05T09:38:59.789Z,997.89
2022-11-05T09:39:59.767Z,997.80
2022-11-05T09:40:59.767Z,997.85
2022-11-05T09:41:59.745Z,997.85
2022-11-05T09:42:59.749Z,997.88
2022-11-05T09:43:59.729Z,997.89
2022-11-05T09:44:59.709Z,997.87
2022-11-05T09:45:59.699Z,997.86
2022-11-05T09:46:59.699Z,997.92
2022-11-05T09:47:59.697Z,997.90
2022-11-05T09:48:59.670Z,997.94
2022-11-05T09:49:59.653Z,997.88
2022-11-05T09:50:59.652Z,997.89
2022-11-05T09:51:59.639Z,997.87
2022-11-05T09:52:59.652Z,997.94
2022-11-05T09:53:59.623Z,997.93
2022-11-05T09:54:59.618Z,997.91
2022-11-05T09:55:59.602Z,997.94
2022-11-05T09:56:59.591Z,997.92
2022-11-05T09:57:59.591Z,997.93
2022-11-05T09:58:59.567Z,997.91
2022-11-05T09:59:59.553Z,997.94
2022-11-05T10:00:59.595Z,997.82
2022-11-05T10:01:59.598Z,997.84
2022-11-05T10:02:59.543Z,997.89
2022-11-05T10:03:59.515Z,997.91
2022-11-05T10:05:02.433Z,997.92
2022-11-05T10:06:00.485Z,997.89
2022-11-05T10:06:59.484Z,997.87
2022-11-05T10:07:59.484Z,997.88
2022-11-05T10:08:59.470Z,997.90
2022-11-05T10:09:59.448Z,997.98
2022-11-05T10:10:59.438Z,998.00
2022-11-05T10:11:59.430Z,997.93
2022-11-05T10:12:59.448Z,997.97
2022-11-05T10:13:59.405Z,998.00
2022-11-05T10:14:59.399Z,997.93
2022-11-05T10:15:59.402Z,998.01
2022-11-05T10:16:59.379Z,997.99
2022-11-05T10:17:59.381Z,998.07
2022-11-05T10:18:59.366Z,998.04
2022-11-05T10:19:59.346Z,998.02
2022-11-05T10:20:59.341Z,997.97
2022-11-05T10:22:06.489Z,997.97
2022-11-05T10:23:00.336Z,998.02
2022-11-05T10:23:59.301Z,998.02
2022-11-05T10:24:59.312Z,997.97
2022-11-05T10:25:59.281Z,998.03
2022-11-05T10:26:59.274Z,998.03
2022-11-05T10:27:59.282Z,998.04
2022-11-05T10:28:59.252Z,998.10
2022-11-05T10:29:59.245Z,998.02
2022-11-05T10:30:59.233Z,998.06
2022-11-05T10:31:59.215Z,998.03
2022-11-05T10:32:59.226Z,998.08
2022-11-05T10:33:59.206Z,998.01
2022-11-05T10:34:59.187Z,998.12
2022-11-05T10:35:59.185Z,998.11
2022-11-05T10:36:59.178Z,998.11
2022-11-05T10:37:59.185Z,998.12
2022-11-05T10:38:59.147Z,998.06
2022-11-05T10:39:59.136Z,998.14
2022-11-05T10:40:59.127Z,998.10
2022-11-05T10:41:59.125Z,998.15
2022-11-05T10:42:59.148Z,998.13
2022-11-05T10:43:59.090Z,998.19
2022-11-05T10:44:59.099Z,998.14
2022-11-05T10:45:59.060Z,998.21
2022-11-05T10:46:59.059Z,998.22
2022-11-05T10:47:59.068Z,998.19
2022-11-05T10:48:59.050Z,998.21
2022-11-05T10:49:59.040Z,998.18
2022-11-05T10:50:59.023Z,998.15
2022-11-05T10:51:59.003Z,998.15
2022-11-05T10:52:59.015Z,998.21
2022-11-05T10:54:02.112Z,998.26
2022-11-05T10:54:58.983Z,998.23
2022-11-05T10:55:58.963Z,998.24
2022-11-05T10:56:58.954Z,998.23
2022-11-05T10:57:58.963Z,998.18
2022-11-05T10:58:58.933Z,998.20
2022-11-05T10:59:58.923Z,998.13
2022-11-05T11:00:58.949Z,998.18
2022-11-05T11:01:59.032Z,998.17
2022-11-05T11:02:58.913Z,998.16
2022-11-05T11:03:58.877Z,998.12
2022-11-05T11:04:58.873Z,998.10
2022-11-05T11:05:58.857Z,998.11
2022-11-05T11:06:58.859Z,998.14
2022-11-05T11:07:58.855Z,998.09
2022-11-05T11:08:58.827Z,998.08
2022-11-05T11:09:58.817Z,998.11
2022-11-05T11:10:58.821Z,998.17
2022-11-05T11:11:58.797Z,998.06
2022-11-05T11:12:58.812Z,998.11
2022-11-05T11:13:58.770Z,998.13
2022-11-05T11:14:58.772Z,998.12
2022-11-05T11:15:58.750Z,998.09
2022-11-05T11:16:58.751Z,998.15
2022-11-05T11:17:58.750Z,998.07
2022-11-05T11:18:58.731Z,998.05
2022-11-05T11:19:58.728Z,998.14
2022-11-05T11:20:58.702Z,998.07
2022-11-05T11:21:58.693Z,998.07
2022-11-05T11:22:58.701Z,998.08
2022-11-05T11:23:58.735Z,998.04
2022-11-05T11:24:58.665Z,998.07
2022-11-05T11:25:58.644Z,998.05
2022-11-05T11:26:58.657Z,998.11
2022-11-05T11:27:58.665Z,998.12
2022-11-05T11:28:58.636Z,998.11
2022-11-05T11:29:58.603Z,998.09
2022-11-05T11:30:58.598Z,998.13
2022-11-05T11:31:58.587Z,998.10
2022-11-05T11:32:58.616Z,998.13
2022-11-05T11:33:58.566Z,998.13
2022-11-05T11:34:58.562Z,998.09
2022-11-05T11:35:58.552Z,998.11
2022-11-05T11:36:58.537Z,998.10
2022-11-05T11:37:58.556Z,998.09
2022-11-05T11:38:58.515Z,998.11
2022-11-05T11:39:58.499Z,998.12
2022-11-05T11:40:58.488Z,998.10
2022-11-05T11:41:58.470Z,998.09
2022-11-05T11:42:58.521Z,998.04
2022-11-05T11:43:58.466Z,998.06
2022-11-05T11:44:58.445Z,998.06
2022-11-05T11:46:04.876Z,998.05
2022-11-05T11:46:59.423Z,998.05
2022-11-05T11:47:58.434Z,998.10
2022-11-05T11:48:58.410Z,998.03
2022-11-05T11:49:58.391Z,998.08
2022-11-05T11:50:58.382Z,997.99
2022-11-05T11:51:58.394Z,998.00
2022-11-05T11:52:58.392Z,998.07
2022-11-05T11:53:58.348Z,998.00
2022-11-05T11:54:58.345Z,998.08
2022-11-05T11:55:58.324Z,998.02
2022-11-05T11:56:58.320Z,997.95
2022-11-05T11:57:58.325Z,997.97
2022-11-05T11:58:58.295Z,997.98
2022-11-05T12:00:13.676Z,997.95
2022-11-05T12:00:59.285Z,997.90
2022-11-05T12:01:58.371Z,997.90
2022-11-05T12:03:01.866Z,997.89
2022-11-05T12:03:58.274Z,997.87
2022-11-05T12:04:58.236Z,997.85
2022-11-05T12:05:58.218Z,997.87
2022-11-05T12:06:58.219Z,997.85
2022-11-05T12:07:58.248Z,997.78
2022-11-05T12:09:03.566Z,997.81
2022-11-05T12:09:59.169Z,997.79
2022-11-05T12:10:58.182Z,997.81
2022-11-05T12:11:58.160Z,997.82
2022-11-05T12:12:58.181Z,997.75
2022-11-05T12:13:58.135Z,997.81
2022-11-05T12:14:58.142Z,997.83
2022-11-05T12:15:58.120Z,997.80
2022-11-05T12:16:58.103Z,997.78
2022-11-05T12:17:58.112Z,997.78
2022-11-05T12:18:58.091Z,997.84
2022-11-05T12:19:58.074Z,997.83
2022-11-05T12:20:58.589Z,997.77
2022-11-05T12:21:58.042Z,997.83
2022-11-05T12:22:58.073Z,997.84
2022-11-05T12:23:58.037Z,997.81
2022-11-05T12:24:58.025Z,997.85
2022-11-05T12:25:58.004Z,997.79
2022-11-05T12:26:58.007Z,997.78
2022-11-05T12:27:57.998Z,997.81